sensor_id;sensor_type;location;lat;lon;timestamp;P1;durP1;ratioP1;P2;durP2;ratioP2
21148;SDS011;10732;51.472;6.466;2023-07-31T00:00:04;12.65;;;6.15;;
21148;SDS011;10732;51.472;6.466;2023-07-31T00:02:30;12.07;;;5.97;;
21148;SDS011;10732;51.472;6.466;2023-07-31T00:04:56;14.77;;;6.47;;
21148;SDS011;10732;51.472;6.466;2023-07-31T00:07:21;18.35;;;6.47;;
21148;SDS011;10732;51.472;6.466;2023-07-31T00:09:47;15.27;;;6.53;;
21148;SDS011;10732;51.472;6.466;2023-07-31T00:12:13;17.50;;;6.68;;
21148;SDS011;10732;51.472;6.466;2023-07-31T00:14:38;18.48;;;6.68;;
21148;SDS011;10732;51.472;6.466;2023-07-31T00:17:04;15.48;;;6.53;;
21148;SDS011;10732;51.472;6.466;2023-07-31T00:19:29;19.73;;;7.13;;
21148;SDS011;10732;51.472;6.466;2023-07-31T00:21:55;18.63;;;6.97;;
21148;SDS011;10732;51.472;6.466;2023-07-31T00:24:20;16.17;;;5.55;;
21148;SDS011;10732;51.472;6.466;2023-07-31T00:26:46;12.77;;;6.30;;
21148;SDS011;10732;51.472;6.466;2023-07-31T00:29:11;16.45;;;6.60;;
21148;SDS011;10732;51.472;6.466;2023-07-31T00:31:37;19.95;;;7.07;;
21148;SDS011;10732;51.472;6.466;2023-07-31T00:34:02;15.98;;;6.72;;
21148;SDS011;10732;51.472;6.466;2023-07-31T00:36:28;19.75;;;7.05;;
21148;SDS011;10732;51.472;6.466;2023-07-31T00:38:54;12.40;;;5.85;;
21148;SDS011;10732;51.472;6.466;2023-07-31T00:41:19;17.13;;;6.88;;
21148;SDS011;10732;51.472;6.466;2023-07-31T00:43:44;14.35;;;6.15;;
21148;SDS011;10732;51.472;6.466;2023-07-31T00:46:10;15.07;;;5.68;;
21148;SDS011;10732;51.472;6.466;2023-07-31T00:48:36;13.93;;;5.70;;
21148;SDS011;10732;51.472;6.466;2023-07-31T00:51:03;17.50;;;6.10;;
21148;SDS011;10732;51.472;6.466;2023-07-31T00:53:29;18.85;;;5.82;;
21148;SDS011;10732;51.472;6.466;2023-07-31T00:55:55;19.30;;;6.72;;
21148;SDS011;10732;51.472;6.466;2023-07-31T00:58:21;14.85;;;5.93;;
21148;SDS011;10732;51.472;6.466;2023-07-31T01:00:46;11.30;;;5.82;;
21148;SDS011;10732;51.472;6.466;2023-07-31T01:03:12;15.52;;;6.07;;
21148;SDS011;10732;51.472;6.466;2023-07-31T01:08:40;15.68;;;5.82;;
21148;SDS011;10732;51.472;6.466;2023-07-31T01:11:16;14.27;;;5.32;;
21148;SDS011;10732;51.472;6.466;2023-07-31T01:13:45;12.95;;;5.63;;
21148;SDS011;10732;51.472;6.466;2023-07-31T01:16:11;18.92;;;5.50;;
21148;SDS011;10732;51.472;6.466;2023-07-31T01:18:37;15.52;;;5.88;;
21148;SDS011;10732;51.472;6.466;2023-07-31T01:21:03;14.27;;;5.18;;
21148;SDS011;10732;51.472;6.466;2023-07-31T01:23:51;17.27;;;5.40;;
21148;SDS011;10732;51.472;6.466;2023-07-31T01:26:33;17.55;;;5.43;;
21148;SDS011;10732;51.472;6.466;2023-07-31T01:29:01;12.35;;;4.85;;
21148;SDS011;10732;51.472;6.466;2023-07-31T01:31:35;14.82;;;5.80;;
21148;SDS011;10732;51.472;6.466;2023-07-31T01:34:02;15.13;;;5.38;;
21148;SDS011;10732;51.472;6.466;2023-07-31T01:36:29;16.95;;;5.53;;
21148;SDS011;10732;51.472;6.466;2023-07-31T01:38:58;14.55;;;5.53;;
21148;SDS011;10732;51.472;6.466;2023-07-31T01:41:25;15.65;;;5.32;;
21148;SDS011;10732;51.472;6.466;2023-07-31T01:43:51;10.18;;;5.25;;
21148;SDS011;10732;51.472;6.466;2023-07-31T01:46:17;10.43;;;5.30;;
21148;SDS011;10732;51.472;6.466;2023-07-31T01:48:42;15.60;;;5.18;;
21148;SDS011;10732;51.472;6.466;2023-07-31T01:51:08;11.57;;;5.20;;
21148;SDS011;10732;51.472;6.466;2023-07-31T01:53:33;13.10;;;5.32;;
21148;SDS011;10732;51.472;6.466;2023-07-31T01:55:59;13.05;;;5.53;;
21148;SDS011;10732;51.472;6.466;2023-07-31T01:58:24;16.15;;;5.53;;
21148;SDS011;10732;51.472;6.466;2023-07-31T02:00:50;13.25;;;5.10;;
21148;SDS011;10732;51.472;6.466;2023-07-31T02:03:15;16.92;;;5.47;;
21148;SDS011;10732;51.472;6.466;2023-07-31T02:05:44;13.40;;;5.60;;
21148;SDS011;10732;51.472;6.466;2023-07-31T02:08:14;14.13;;;6.00;;
21148;SDS011;10732;51.472;6.466;2023-07-31T02:10:40;15.60;;;5.70;;
21148;SDS011;10732;51.472;6.466;2023-07-31T02:13:05;16.25;;;5.55;;
21148;SDS011;10732;51.472;6.466;2023-07-31T02:15:31;20.33;;;5.57;;
21148;SDS011;10732;51.472;6.466;2023-07-31T02:17:57;14.30;;;5.80;;
21148;SDS011;10732;51.472;6.466;2023-07-31T02:20:23;17.25;;;5.60;;
21148;SDS011;10732;51.472;6.466;2023-07-31T02:22:48;14.05;;;5.43;;
21148;SDS011;10732;51.472;6.466;2023-07-31T02:25:14;15.13;;;5.50;;
21148;SDS011;10732;51.472;6.466;2023-07-31T02:27:39;15.52;;;5.70;;
21148;SDS011;10732;51.472;6.466;2023-07-31T02:30:05;17.30;;;6.15;;
21148;SDS011;10732;51.472;6.466;2023-07-31T02:32:31;13.32;;;6.03;;
21148;SDS011;10732;51.472;6.466;2023-07-31T02:34:57;13.40;;;5.20;;
21148;SDS011;10732;51.472;6.466;2023-07-31T02:37:22;11.68;;;5.20;;
21148;SDS011;10732;51.472;6.466;2023-07-31T02:39:48;14.75;;;5.55;;
21148;SDS011;10732;51.472;6.466;2023-07-31T02:42:14;12.43;;;5.60;;
21148;SDS011;10732;51.472;6.466;2023-07-31T02:44:39;16.23;;;6.15;;
21148;SDS011;10732;51.472;6.466;2023-07-31T02:47:05;12.55;;;5.15;;
21148;SDS011;10732;51.472;6.466;2023-07-31T02:49:31;12.77;;;5.10;;
21148;SDS011;10732;51.472;6.466;2023-07-31T02:51:57;12.40;;;5.80;;
21148;SDS011;10732;51.472;6.466;2023-07-31T02:54:22;16.35;;;5.63;;
21148;SDS011;10732;51.472;6.466;2023-07-31T02:56:48;18.08;;;6.00;;
21148;SDS011;10732;51.472;6.466;2023-07-31T02:59:14;13.25;;;5.30;;
21148;SDS011;10732;51.472;6.466;2023-07-31T03:01:39;19.00;;;6.30;;
21148;SDS011;10732;51.472;6.466;2023-07-31T03:04:05;15.82;;;6.00;;
21148;SDS011;10732;51.472;6.466;2023-07-31T03:06:30;17.58;;;5.68;;
21148;SDS011;10732;51.472;6.466;2023-07-31T03:08:56;18.55;;;5.80;;
21148;SDS011;10732;51.472;6.466;2023-07-31T03:11:21;13.48;;;5.13;;
21148;SDS011;10732;51.472;6.466;2023-07-31T03:13:47;15.50;;;5.50;;
21148;SDS011;10732;51.472;6.466;2023-07-31T03:16:12;14.90;;;5.80;;
21148;SDS011;10732;51.472;6.466;2023-07-31T03:18:38;12.05;;;5.57;;
21148;SDS011;10732;51.472;6.466;2023-07-31T03:21:04;16.65;;;5.93;;
21148;SDS011;10732;51.472;6.466;2023-07-31T03:23:30;18.30;;;6.30;;
21148;SDS011;10732;51.472;6.466;2023-07-31T03:25:59;18.88;;;5.45;;
21148;SDS011;10732;51.472;6.466;2023-07-31T03:28:26;14.88;;;5.50;;
21148;SDS011;10732;51.472;6.466;2023-07-31T03:30:52;12.75;;;6.00;;
21148;SDS011;10732;51.472;6.466;2023-07-31T03:33:18;19.20;;;5.65;;
21148;SDS011;10732;51.472;6.466;2023-07-31T03:35:43;11.48;;;5.20;;
21148;SDS011;10732;51.472;6.466;2023-07-31T03:38:09;15.40;;;5.43;;
21148;SDS011;10732;51.472;6.466;2023-07-31T03:40:35;16.42;;;5.97;;
21148;SDS011;10732;51.472;6.466;2023-07-31T03:43:00;16.77;;;5.93;;
21148;SDS011;10732;51.472;6.466;2023-07-31T03:45:26;14.30;;;5.30;;
21148;SDS011;10732;51.472;6.466;2023-07-31T03:47:51;17.40;;;6.55;;
21148;SDS011;10732;51.472;6.466;2023-07-31T03:50:17;15.52;;;6.32;;
21148;SDS011;10732;51.472;6.466;2023-07-31T03:52:42;15.00;;;5.45;;
21148;SDS011;10732;51.472;6.466;2023-07-31T03:55:08;14.05;;;5.80;;
21148;SDS011;10732;51.472;6.466;2023-07-31T03:57:33;15.07;;;5.35;;
21148;SDS011;10732;51.472;6.466;2023-07-31T03:59:59;14.57;;;5.80;;
21148;SDS011;10732;51.472;6.466;2023-07-31T04:02:24;15.05;;;5.55;;
21148;SDS011;10732;51.472;6.466;2023-07-31T04:04:50;13.82;;;5.28;;
21148;SDS011;10732;51.472;6.466;2023-07-31T04:07:15;17.42;;;5.80;;
21148;SDS011;10732;51.472;6.466;2023-07-31T04:09:41;13.60;;;5.63;;
21148;SDS011;10732;51.472;6.466;2023-07-31T04:12:07;14.98;;;5.93;;
21148;SDS011;10732;51.472;6.466;2023-07-31T04:14:32;14.88;;;5.28;;
21148;SDS011;10732;51.472;6.466;2023-07-31T04:16:58;17.25;;;5.78;;
21148;SDS011;10732;51.472;6.466;2023-07-31T04:19:24;11.63;;;5.38;;
21148;SDS011;10732;51.472;6.466;2023-07-31T04:21:49;15.30;;;5.57;;
21148;SDS011;10732;51.472;6.466;2023-07-31T04:24:15;15.93;;;5.50;;
21148;SDS011;10732;51.472;6.466;2023-07-31T04:26:40;16.38;;;5.82;;
21148;SDS011;10732;51.472;6.466;2023-07-31T04:29:06;15.32;;;5.63;;
21148;SDS011;10732;51.472;6.466;2023-07-31T04:31:32;18.55;;;6.13;;
21148;SDS011;10732;51.472;6.466;2023-07-31T04:33:58;12.38;;;5.70;;
21148;SDS011;10732;51.472;6.466;2023-07-31T04:36:24;13.45;;;5.45;;
21148;SDS011;10732;51.472;6.466;2023-07-31T04:38:49;14.60;;;5.43;;
21148;SDS011;10732;51.472;6.466;2023-07-31T04:41:15;16.08;;;5.72;;
21148;SDS011;10732;51.472;6.466;2023-07-31T04:43:40;14.65;;;5.85;;
21148;SDS011;10732;51.472;6.466;2023-07-31T04:46:06;16.05;;;5.45;;
21148;SDS011;10732;51.472;6.466;2023-07-31T04:48:31;18.05;;;5.18;;
21148;SDS011;10732;51.472;6.466;2023-07-31T04:50:57;14.20;;;5.57;;
21148;SDS011;10732;51.472;6.466;2023-07-31T04:53:22;15.10;;;5.88;;
21148;SDS011;10732;51.472;6.466;2023-07-31T04:55:48;11.73;;;5.80;;
21148;SDS011;10732;51.472;6.466;2023-07-31T04:58:14;13.57;;;5.35;;
21148;SDS011;10732;51.472;6.466;2023-07-31T05:00:39;11.35;;;5.32;;
21148;SDS011;10732;51.472;6.466;2023-07-31T05:03:05;11.18;;;4.80;;
21148;SDS011;10732;51.472;6.466;2023-07-31T05:05:31;14.20;;;5.32;;
21148;SDS011;10732;51.472;6.466;2023-07-31T05:07:56;13.98;;;5.75;;
21148;SDS011;10732;51.472;6.466;2023-07-31T05:10:22;13.80;;;5.70;;
21148;SDS011;10732;51.472;6.466;2023-07-31T05:12:47;11.88;;;5.38;;
21148;SDS011;10732;51.472;6.466;2023-07-31T05:15:13;14.38;;;5.57;;
21148;SDS011;10732;51.472;6.466;2023-07-31T05:17:38;14.10;;;4.90;;
21148;SDS011;10732;51.472;6.466;2023-07-31T05:20:04;15.60;;;6.00;;
21148;SDS011;10732;51.472;6.466;2023-07-31T05:22:30;9.95;;;5.78;;
21148;SDS011;10732;51.472;6.466;2023-07-31T05:24:55;14.60;;;5.93;;
21148;SDS011;10732;51.472;6.466;2023-07-31T05:27:21;17.00;;;5.68;;
21148;SDS011;10732;51.472;6.466;2023-07-31T05:29:47;14.73;;;5.15;;
21148;SDS011;10732;51.472;6.466;2023-07-31T05:32:12;13.23;;;5.90;;
21148;SDS011;10732;51.472;6.466;2023-07-31T05:34:38;12.45;;;5.38;;
21148;SDS011;10732;51.472;6.466;2023-07-31T05:37:04;10.73;;;5.65;;
21148;SDS011;10732;51.472;6.466;2023-07-31T05:39:29;10.15;;;5.10;;
21148;SDS011;10732;51.472;6.466;2023-07-31T05:41:55;16.60;;;5.38;;
21148;SDS011;10732;51.472;6.466;2023-07-31T05:44:20;14.32;;;5.25;;
21148;SDS011;10732;51.472;6.466;2023-07-31T05:46:46;13.45;;;5.47;;
21148;SDS011;10732;51.472;6.466;2023-07-31T05:49:12;11.13;;;5.22;;
21148;SDS011;10732;51.472;6.466;2023-07-31T05:51:37;10.38;;;5.03;;
21148;SDS011;10732;51.472;6.466;2023-07-31T05:54:03;10.35;;;5.40;;
21148;SDS011;10732;51.472;6.466;2023-07-31T05:56:29;9.73;;;5.57;;
21148;SDS011;10732;51.472;6.466;2023-07-31T05:58:54;12.50;;;5.15;;
21148;SDS011;10732;51.472;6.466;2023-07-31T06:01:20;12.63;;;5.43;;
21148;SDS011;10732;51.472;6.466;2023-07-31T06:03:46;10.80;;;5.90;;
21148;SDS011;10732;51.472;6.466;2023-07-31T06:06:11;8.55;;;5.57;;
21148;SDS011;10732;51.472;6.466;2023-07-31T06:08:38;12.65;;;5.68;;
21148;SDS011;10732;51.472;6.466;2023-07-31T06:11:04;11.88;;;5.82;;
21148;SDS011;10732;51.472;6.466;2023-07-31T06:13:30;8.10;;;5.68;;
21148;SDS011;10732;51.472;6.466;2023-07-31T06:15:56;11.68;;;5.75;;
21148;SDS011;10732;51.472;6.466;2023-07-31T06:18:21;11.30;;;5.90;;
21148;SDS011;10732;51.472;6.466;2023-07-31T06:20:47;12.07;;;6.03;;
21148;SDS011;10732;51.472;6.466;2023-07-31T06:23:18;11.50;;;5.80;;
21148;SDS011;10732;51.472;6.466;2023-07-31T06:25:44;11.05;;;5.35;;
21148;SDS011;10732;51.472;6.466;2023-07-31T06:28:09;9.10;;;5.80;;
21148;SDS011;10732;51.472;6.466;2023-07-31T06:30:35;12.18;;;5.60;;
21148;SDS011;10732;51.472;6.466;2023-07-31T06:33:00;9.07;;;5.47;;
21148;SDS011;10732;51.472;6.466;2023-07-31T06:35:26;12.38;;;5.25;;
21148;SDS011;10732;51.472;6.466;2023-07-31T06:37:51;10.95;;;5.32;;
21148;SDS011;10732;51.472;6.466;2023-07-31T06:40:17;9.20;;;6.15;;
21148;SDS011;10732;51.472;6.466;2023-07-31T06:42:42;10.63;;;5.40;;
21148;SDS011;10732;51.472;6.466;2023-07-31T06:45:08;8.95;;;5.32;;
21148;SDS011;10732;51.472;6.466;2023-07-31T06:47:34;9.27;;;5.03;;
21148;SDS011;10732;51.472;6.466;2023-07-31T06:49:59;9.80;;;5.40;;
21148;SDS011;10732;51.472;6.466;2023-07-31T06:52:25;9.10;;;5.57;;
21148;SDS011;10732;51.472;6.466;2023-07-31T06:55:03;6.65;;;4.90;;
21148;SDS011;10732;51.472;6.466;2023-07-31T06:57:44;9.15;;;5.40;;
21148;SDS011;10732;51.472;6.466;2023-07-31T07:00:10;8.40;;;4.75;;
21148;SDS011;10732;51.472;6.466;2023-07-31T07:02:36;11.35;;;5.07;;
21148;SDS011;10732;51.472;6.466;2023-07-31T07:05:02;8.40;;;5.05;;
21148;SDS011;10732;51.472;6.466;2023-07-31T07:07:28;10.15;;;5.32;;
21148;SDS011;10732;51.472;6.466;2023-07-31T07:09:53;9.63;;;5.28;;
21148;SDS011;10732;51.472;6.466;2023-07-31T07:12:19;9.48;;;5.28;;
21148;SDS011;10732;51.472;6.466;2023-07-31T07:14:44;8.23;;;4.60;;
21148;SDS011;10732;51.472;6.466;2023-07-31T07:17:12;8.38;;;4.95;;
21148;SDS011;10732;51.472;6.466;2023-07-31T07:19:40;9.40;;;5.35;;
21148;SDS011;10732;51.472;6.466;2023-07-31T07:22:06;6.40;;;4.68;;
21148;SDS011;10732;51.472;6.466;2023-07-31T07:24:32;8.85;;;5.13;;
21148;SDS011;10732;51.472;6.466;2023-07-31T07:26:58;7.90;;;4.82;;
21148;SDS011;10732;51.472;6.466;2023-07-31T07:29:23;9.55;;;5.35;;
21148;SDS011;10732;51.472;6.466;2023-07-31T07:31:49;11.20;;;5.32;;
21148;SDS011;10732;51.472;6.466;2023-07-31T07:34:14;9.57;;;5.28;;
21148;SDS011;10732;51.472;6.466;2023-07-31T07:36:40;8.35;;;5.15;;
21148;SDS011;10732;51.472;6.466;2023-07-31T07:39:06;9.25;;;4.78;;
21148;SDS011;10732;51.472;6.466;2023-07-31T07:41:32;8.45;;;4.38;;
21148;SDS011;10732;51.472;6.466;2023-07-31T07:43:57;6.03;;;4.18;;
21148;SDS011;10732;51.472;6.466;2023-07-31T07:46:23;7.18;;;3.97;;
21148;SDS011;10732;51.472;6.466;2023-07-31T07:48:48;6.18;;;4.07;;
21148;SDS011;10732;51.472;6.466;2023-07-31T07:51:14;7.25;;;4.00;;
21148;SDS011;10732;51.472;6.466;2023-07-31T07:53:39;6.10;;;4.13;;
21148;SDS011;10732;51.472;6.466;2023-07-31T07:56:05;6.15;;;3.80;;
21148;SDS011;10732;51.472;6.466;2023-07-31T07:58:30;5.07;;;3.65;;
21148;SDS011;10732;51.472;6.466;2023-07-31T08:00:56;6.53;;;3.90;;
21148;SDS011;10732;51.472;6.466;2023-07-31T08:03:21;7.07;;;3.67;;
21148;SDS011;10732;51.472;6.466;2023-07-31T08:05:47;5.93;;;3.70;;
21148;SDS011;10732;51.472;6.466;2023-07-31T08:08:15;4.00;;;3.13;;
21148;SDS011;10732;51.472;6.466;2023-07-31T08:10:41;6.13;;;3.88;;
21148;SDS011;10732;51.472;6.466;2023-07-31T08:13:07;6.95;;;3.58;;
21148;SDS011;10732;51.472;6.466;2023-07-31T08:15:34;7.53;;;3.70;;
21148;SDS011;10732;51.472;6.466;2023-07-31T08:18:00;8.93;;;3.70;;
21148;SDS011;10732;51.472;6.466;2023-07-31T08:20:26;5.10;;;3.30;;
21148;SDS011;10732;51.472;6.466;2023-07-31T08:22:52;5.72;;;3.55;;
21148;SDS011;10732;51.472;6.466;2023-07-31T08:25:18;5.88;;;3.45;;
21148;SDS011;10732;51.472;6.466;2023-07-31T08:27:43;5.13;;;3.20;;
21148;SDS011;10732;51.472;6.466;2023-07-31T08:30:09;4.90;;;3.45;;
21148;SDS011;10732;51.472;6.466;2023-07-31T08:32:37;7.05;;;3.47;;
21148;SDS011;10732;51.472;6.466;2023-07-31T08:35:02;6.78;;;3.38;;
21148;SDS011;10732;51.472;6.466;2023-07-31T08:37:28;8.32;;;3.88;;
21148;SDS011;10732;51.472;6.466;2023-07-31T08:39:54;4.60;;;3.42;;
21148;SDS011;10732;51.472;6.466;2023-07-31T08:42:19;5.75;;;3.47;;
21148;SDS011;10732;51.472;6.466;2023-07-31T08:44:45;4.90;;;3.58;;
21148;SDS011;10732;51.472;6.466;2023-07-31T08:47:12;4.97;;;3.80;;
21148;SDS011;10732;51.472;6.466;2023-07-31T08:49:38;4.32;;;3.42;;
21148;SDS011;10732;51.472;6.466;2023-07-31T08:52:05;6.20;;;3.72;;
21148;SDS011;10732;51.472;6.466;2023-07-31T08:54:31;4.45;;;3.42;;
21148;SDS011;10732;51.472;6.466;2023-07-31T08:56:58;6.55;;;3.80;;
21148;SDS011;10732;51.472;6.466;2023-07-31T08:59:25;5.40;;;3.67;;
21148;SDS011;10732;51.472;6.466;2023-07-31T09:01:56;6.88;;;3.83;;
21148;SDS011;10732;51.472;6.466;2023-07-31T09:04:27;6.57;;;3.88;;
21148;SDS011;10732;51.472;6.466;2023-07-31T09:06:54;9.30;;;4.18;;
21148;SDS011;10732;51.472;6.466;2023-07-31T09:09:24;6.68;;;3.90;;
21148;SDS011;10732;51.472;6.466;2023-07-31T09:11:50;5.65;;;3.90;;
21148;SDS011;10732;51.472;6.466;2023-07-31T09:14:17;7.13;;;3.90;;
21148;SDS011;10732;51.472;6.466;2023-07-31T09:16:56;6.10;;;3.45;;
21148;SDS011;10732;51.472;6.466;2023-07-31T09:19:27;6.75;;;3.85;;
21148;SDS011;10732;51.472;6.466;2023-07-31T09:21:54;6.22;;;3.42;;
21148;SDS011;10732;51.472;6.466;2023-07-31T09:24:27;4.10;;;3.10;;
21148;SDS011;10732;51.472;6.466;2023-07-31T09:26:54;6.45;;;3.40;;
21148;SDS011;10732;51.472;6.466;2023-07-31T09:29:21;5.85;;;3.50;;
21148;SDS011;10732;51.472;6.466;2023-07-31T09:31:47;5.72;;;3.10;;
21148;SDS011;10732;51.472;6.466;2023-07-31T09:34:12;6.25;;;3.35;;
21148;SDS011;10732;51.472;6.466;2023-07-31T09:36:42;5.45;;;3.25;;
21148;SDS011;10732;51.472;6.466;2023-07-31T09:39:09;5.53;;;3.10;;
21148;SDS011;10732;51.472;6.466;2023-07-31T09:41:36;4.75;;;3.30;;
21148;SDS011;10732;51.472;6.466;2023-07-31T09:44:03;4.90;;;2.83;;
21148;SDS011;10732;51.472;6.466;2023-07-31T09:46:29;4.18;;;3.00;;
21148;SDS011;10732;51.472;6.466;2023-07-31T09:51:50;4.72;;;2.95;;
21148;SDS011;10732;51.472;6.466;2023-07-31T09:54:16;3.75;;;2.88;;
21148;SDS011;10732;51.472;6.466;2023-07-31T09:56:42;5.57;;;3.47;;
21148;SDS011;10732;51.472;6.466;2023-07-31T09:59:13;5.80;;;2.90;;
21148;SDS011;10732;51.472;6.466;2023-07-31T10:01:40;6.18;;;3.50;;
21148;SDS011;10732;51.472;6.466;2023-07-31T10:04:07;6.25;;;3.15;;
21148;SDS011;10732;51.472;6.466;2023-07-31T10:06:34;7.78;;;3.33;;
21148;SDS011;10732;51.472;6.466;2023-07-31T10:09:02;4.35;;;3.13;;
21148;SDS011;10732;51.472;6.466;2023-07-31T10:11:30;5.78;;;3.45;;
21148;SDS011;10732;51.472;6.466;2023-07-31T10:14:03;5.30;;;3.28;;
21148;SDS011;10732;51.472;6.466;2023-07-31T10:16:29;5.57;;;3.58;;
21148;SDS011;10732;51.472;6.466;2023-07-31T10:18:56;6.38;;;3.47;;
21148;SDS011;10732;51.472;6.466;2023-07-31T10:21:23;5.38;;;3.47;;
21148;SDS011;10732;51.472;6.466;2023-07-31T10:23:48;6.00;;;3.15;;
21148;SDS011;10732;51.472;6.466;2023-07-31T10:26:16;5.30;;;3.30;;
21148;SDS011;10732;51.472;6.466;2023-07-31T10:28:43;5.80;;;3.25;;
21148;SDS011;10732;51.472;6.466;2023-07-31T10:31:11;6.90;;;3.20;;
21148;SDS011;10732;51.472;6.466;2023-07-31T10:33:36;4.45;;;3.03;;
21148;SDS011;10732;51.472;6.466;2023-07-31T10:36:12;8.10;;;3.40;;
21148;SDS011;10732;51.472;6.466;2023-07-31T10:38:39;6.18;;;3.30;;
21148;SDS011;10732;51.472;6.466;2023-07-31T10:41:09;5.18;;;3.20;;
21148;SDS011;10732;51.472;6.466;2023-07-31T10:43:35;4.43;;;2.80;;
21148;SDS011;10732;51.472;6.466;2023-07-31T10:46:08;4.82;;;3.33;;
21148;SDS011;10732;51.472;6.466;2023-07-31T10:48:36;6.78;;;3.40;;
21148;SDS011;10732;51.472;6.466;2023-07-31T10:51:06;4.05;;;3.10;;
21148;SDS011;10732;51.472;6.466;2023-07-31T10:53:34;5.00;;;3.05;;
21148;SDS011;10732;51.472;6.466;2023-07-31T10:56:07;5.18;;;2.78;;
21148;SDS011;10732;51.472;6.466;2023-07-31T10:58:34;5.28;;;3.10;;
21148;SDS011;10732;51.472;6.466;2023-07-31T11:01:02;4.90;;;2.88;;
21148;SDS011;10732;51.472;6.466;2023-07-31T11:03:45;5.55;;;3.00;;
21148;SDS011;10732;51.472;6.466;2023-07-31T11:06:17;4.13;;;2.60;;
21148;SDS011;10732;51.472;6.466;2023-07-31T11:08:44;3.30;;;2.60;;
21148;SDS011;10732;51.472;6.466;2023-07-31T11:11:15;5.63;;;2.75;;
21148;SDS011;10732;51.472;6.466;2023-07-31T11:13:43;5.43;;;3.05;;
21148;SDS011;10732;51.472;6.466;2023-07-31T11:16:11;4.95;;;2.90;;
21148;SDS011;10732;51.472;6.466;2023-07-31T11:18:38;4.13;;;2.90;;
21148;SDS011;10732;51.472;6.466;2023-07-31T11:21:08;5.40;;;2.90;;
21148;SDS011;10732;51.472;6.466;2023-07-31T11:23:37;4.70;;;2.80;;
21148;SDS011;10732;51.472;6.466;2023-07-31T11:26:04;4.55;;;2.95;;
21148;SDS011;10732;51.472;6.466;2023-07-31T11:28:34;4.15;;;2.83;;
21148;SDS011;10732;51.472;6.466;2023-07-31T11:31:00;3.60;;;2.92;;
21148;SDS011;10732;51.472;6.466;2023-07-31T11:33:26;3.95;;;2.78;;
21148;SDS011;10732;51.472;6.466;2023-07-31T11:35:52;4.03;;;2.83;;
21148;SDS011;10732;51.472;6.466;2023-07-31T11:38:21;5.07;;;2.65;;
21148;SDS011;10732;51.472;6.466;2023-07-31T11:40:55;4.50;;;2.75;;
21148;SDS011;10732;51.472;6.466;2023-07-31T11:43:22;5.57;;;3.30;;
21148;SDS011;10732;51.472;6.466;2023-07-31T11:45:49;4.50;;;2.80;;
21148;SDS011;10732;51.472;6.466;2023-07-31T11:48:22;4.22;;;2.60;;
21148;SDS011;10732;51.472;6.466;2023-07-31T11:51:00;5.68;;;3.28;;
21148;SDS011;10732;51.472;6.466;2023-07-31T11:53:31;4.40;;;2.60;;
21148;SDS011;10732;51.472;6.466;2023-07-31T11:56:06;8.55;;;2.75;;
21148;SDS011;10732;51.472;6.466;2023-07-31T11:58:36;4.18;;;2.92;;
21148;SDS011;10732;51.472;6.466;2023-07-31T12:01:02;4.00;;;2.97;;
21148;SDS011;10732;51.472;6.466;2023-07-31T12:03:30;5.80;;;3.10;;
21148;SDS011;10732;51.472;6.466;2023-07-31T12:05:57;4.93;;;3.00;;
21148;SDS011;10732;51.472;6.466;2023-07-31T12:08:24;7.70;;;3.22;;
21148;SDS011;10732;51.472;6.466;2023-07-31T12:10:50;4.22;;;2.72;;
21148;SDS011;10732;51.472;6.466;2023-07-31T12:13:26;4.47;;;2.83;;
21148;SDS011;10732;51.472;6.466;2023-07-31T12:15:55;3.60;;;2.72;;
21148;SDS011;10732;51.472;6.466;2023-07-31T12:18:26;5.05;;;3.03;;
21148;SDS011;10732;51.472;6.466;2023-07-31T12:20:56;3.80;;;2.72;;
21148;SDS011;10732;51.472;6.466;2023-07-31T12:23:25;4.00;;;2.55;;
21148;SDS011;10732;51.472;6.466;2023-07-31T12:26:02;6.03;;;2.85;;
21148;SDS011;10732;51.472;6.466;2023-07-31T12:28:43;5.15;;;2.42;;
21148;SDS011;10732;51.472;6.466;2023-07-31T12:31:11;3.55;;;2.35;;
21148;SDS011;10732;51.472;6.466;2023-07-31T12:33:38;4.55;;;2.60;;
21148;SDS011;10732;51.472;6.466;2023-07-31T12:36:07;7.15;;;2.90;;
21148;SDS011;10732;51.472;6.466;2023-07-31T12:38:37;4.55;;;2.50;;
21148;SDS011;10732;51.472;6.466;2023-07-31T12:41:03;3.78;;;3.00;;
21148;SDS011;10732;51.472;6.466;2023-07-31T12:43:29;4.15;;;2.80;;
21148;SDS011;10732;51.472;6.466;2023-07-31T12:45:55;3.50;;;2.60;;
21148;SDS011;10732;51.472;6.466;2023-07-31T12:48:21;3.35;;;2.65;;
21148;SDS011;10732;51.472;6.466;2023-07-31T12:50:47;6.03;;;2.75;;
21148;SDS011;10732;51.472;6.466;2023-07-31T12:53:13;4.93;;;2.83;;
21148;SDS011;10732;51.472;6.466;2023-07-31T12:55:39;6.15;;;3.28;;
21148;SDS011;10732;51.472;6.466;2023-07-31T12:58:05;5.20;;;2.80;;
21148;SDS011;10732;51.472;6.466;2023-07-31T13:00:30;4.70;;;3.15;;
21148;SDS011;10732;51.472;6.466;2023-07-31T13:02:56;4.07;;;3.20;;
21148;SDS011;10732;51.472;6.466;2023-07-31T13:05:21;7.22;;;3.72;;
21148;SDS011;10732;51.472;6.466;2023-07-31T13:07:47;5.20;;;3.25;;
21148;SDS011;10732;51.472;6.466;2023-07-31T13:10:13;5.28;;;3.30;;
21148;SDS011;10732;51.472;6.466;2023-07-31T13:12:39;6.55;;;3.85;;
21148;SDS011;10732;51.472;6.466;2023-07-31T13:15:05;5.68;;;3.67;;
21148;SDS011;10732;51.472;6.466;2023-07-31T13:17:31;7.07;;;4.03;;
21148;SDS011;10732;51.472;6.466;2023-07-31T13:19:57;6.45;;;3.90;;
21148;SDS011;10732;51.472;6.466;2023-07-31T13:22:22;8.00;;;3.90;;
21148;SDS011;10732;51.472;6.466;2023-07-31T13:24:48;3.97;;;3.25;;
21148;SDS011;10732;51.472;6.466;2023-07-31T13:27:14;8.13;;;4.03;;
21148;SDS011;10732;51.472;6.466;2023-07-31T13:29:45;7.18;;;3.58;;
21148;SDS011;10732;51.472;6.466;2023-07-31T13:32:11;7.85;;;3.97;;
21148;SDS011;10732;51.472;6.466;2023-07-31T13:34:36;6.55;;;4.32;;
21148;SDS011;10732;51.472;6.466;2023-07-31T13:37:02;6.10;;;4.07;;
21148;SDS011;10732;51.472;6.466;2023-07-31T13:39:28;6.85;;;3.60;;
21148;SDS011;10732;51.472;6.466;2023-07-31T13:41:54;7.20;;;4.15;;
21148;SDS011;10732;51.472;6.466;2023-07-31T13:44:19;7.97;;;4.20;;
21148;SDS011;10732;51.472;6.466;2023-07-31T13:46:45;4.95;;;3.95;;
21148;SDS011;10732;51.472;6.466;2023-07-31T13:49:10;6.22;;;4.18;;
21148;SDS011;10732;51.472;6.466;2023-07-31T13:51:36;5.78;;;3.90;;
21148;SDS011;10732;51.472;6.466;2023-07-31T13:54:04;6.60;;;4.20;;
21148;SDS011;10732;51.472;6.466;2023-07-31T13:56:29;8.25;;;4.63;;
21148;SDS011;10732;51.472;6.466;2023-07-31T13:58:55;7.07;;;4.03;;
21148;SDS011;10732;51.472;6.466;2023-07-31T14:01:20;5.25;;;3.90;;
21148;SDS011;10732;51.472;6.466;2023-07-31T14:03:46;7.00;;;4.07;;
21148;SDS011;10732;51.472;6.466;2023-07-31T14:06:11;5.90;;;4.15;;
21148;SDS011;10732;51.472;6.466;2023-07-31T14:08:37;6.55;;;4.15;;
21148;SDS011;10732;51.472;6.466;2023-07-31T14:11:02;7.07;;;4.22;;
21148;SDS011;10732;51.472;6.466;2023-07-31T14:13:28;6.13;;;4.55;;
21148;SDS011;10732;51.472;6.466;2023-07-31T14:15:54;5.95;;;3.70;;
21148;SDS011;10732;51.472;6.466;2023-07-31T14:18:19;7.82;;;4.57;;
21148;SDS011;10732;51.472;6.466;2023-07-31T14:20:45;8.35;;;4.50;;
21148;SDS011;10732;51.472;6.466;2023-07-31T14:23:10;10.32;;;4.50;;
21148;SDS011;10732;51.472;6.466;2023-07-31T14:25:36;6.55;;;4.65;;
21148;SDS011;10732;51.472;6.466;2023-07-31T14:28:01;6.50;;;4.97;;
21148;SDS011;10732;51.472;6.466;2023-07-31T14:30:27;9.43;;;5.47;;
21148;SDS011;10732;51.472;6.466;2023-07-31T14:32:52;9.35;;;5.55;;
21148;SDS011;10732;51.472;6.466;2023-07-31T14:35:18;9.95;;;5.18;;
21148;SDS011;10732;51.472;6.466;2023-07-31T14:37:44;11.10;;;5.80;;
21148;SDS011;10732;51.472;6.466;2023-07-31T14:40:10;7.50;;;5.97;;
21148;SDS011;10732;51.472;6.466;2023-07-31T14:42:38;9.40;;;5.38;;